WBSBWIOO

Guest
Details From WBSB - Brunei Intl
To WIOO - Pontianak Supadio
Flight Number -
Tags decoded
Created
Modified
Stats Distance 464 nm / 859 km
Max Altitude 0 ft / 0 m
Waypoints 6
Social Downloads 0
Likes 0
Share VATSIM

Download

Looking for another format? Having issues loading an existing format? Contact us
Advertisement - Login to hide

Notes

Requested: WBSB VMI VBU VKG PNK WIOO

Route

WBSB VMI VBU VKG PNK WIOO

ID Type Via Altitude Latitude Longitude Leg Dist Tot Dist Heading (true) Name
O WBSB APT - 0 ft / 0 m 4.94417˚ 114.92833˚ - 0 nm - Brunei Intl
VMI VOR - 0 ft / 0 m 4.33778˚ 113.99419˚ 66 nm 66 nm 237° / 237° MIRI VOR-DME
VBU VOR - 0 ft / 0 m 3.15397˚ 113.01320˚ 92 nm 158 nm 220° / 220° BINTULU VOR-DME
VKG VOR - 0 ft / 0 m 1.47333˚ 110.30575˚ 191 nm 350 nm 238° / 238° KUCHING VOR-DME
PNK VOR - 0 ft / 0 m -0.07915˚ 109.37510˚ 108 nm 458 nm 211° / 211° PONTIANAK VOR-DME
O WIOO APT - 0 ft / 0 m -0.15071˚ 109.40389˚ 4 nm 463 nm 158° / 158° Pontianak Supadio

Altitude Profile

Advertisement - Login to hide

Weather


0- 5 10 15 20 25 30 35+ Temperature / ° C

Clouds and Precipitation
Forecast for 2017-12-13 00:00 UTC. Updated an hour ago

Ground ~20,000 ft ~40,000 ft Winds

WBSB

Details ICAO WBSB (BWN)
Name Brunei Intl
Region Brunei and Malaysia
Timezone Asia/Brunei (UTC+8.0)
Stats Elevation 73 ft / 22 m (AMSL)
Location 4.944172° 114.928327°
Runways 1
Magnetic Variation 0.211° W

METAR

WBSB 122200Z 24007KT 1500 +RA FEW003 SCT014 BKN150 23/23 Q1011 TEMPO 1000 +RA

Decode

TAF

TAF WBSB 121700Z 1218/1400 19004KT 9999 SCT014 FEW015CB TEMPO 1218/1222 5000 TSRA TEMPO 1223/1302 8000 -RA FEW005

Decode

Departure Runways

ID Width Length Bearing (true) Bearing (mag) Surface Threshold Offset Overrun Length
03 151 ft / 46 m 12,044 ft / 3,671 m 30.90° 31.11° Asphalt 0 ft / 0 m 69 ft / 21 m
21 151 ft / 46 m 12,044 ft / 3,671 m 210.90° 211.11° Asphalt 0 ft / 0 m 69 ft / 21 m

WIOO

Details ICAO WIOO (PNK)
Name Pontianak Supadio
Region Indonesia
Timezone Asia/Pontianak (UTC+7.0)
Stats Elevation 10 ft / 3 m (AMSL)
Location -0.150708° 109.403890°
Runways 1
Magnetic Variation 0.499° E

METAR

WIOO 122200Z 00000KT 6000 SCT013 23/22 Q1010 NOSIG

Decode

TAF

Not found

Destination Runways

ID Width Length Bearing (true) Bearing (mag) Surface Threshold Offset Overrun Length
15 98 ft / 30 m 7,400 ft / 2,256 m 157.81° 157.31° Asphalt 0 ft / 0 m 213 ft / 65 m
33 98 ft / 30 m 7,400 ft / 2,256 m 337.81° 337.31° Asphalt 0 ft / 0 m 197 ft / 60 m

Approach Navaids

Runway Type Ident Frequency Range Bearing (true) Bearing (mag) Slope Elevation
15 Localiser IPNK 111.30 MHz 18 nm / 33 km 157.35° 156.85° - 10 ft / 3 m (AMSL)
15 Glidescope IPNK 111.30 MHz 10 nm / 19 km 157.81° 157.32° 3.00° 10 ft / 3 m (AMSL)

Popular Alternatives